No particular awareness of the weather is required.    There are no Weather-warnings


Meteo18 Weather Cam more information Meteo18 Weather Cam


Thunder radar more information blitzortung!


Rain radar more information rain snow radar


Visit our other weather sites:

Template documentation
and downloads

And another site



Weather Underground History page Text

Daily Summary for April 1, 2017 Units:  English    Metric   Both
« Previous Day
Next Day »
Daily Weekly Monthly Yearly Custom
  High: Low: Average:
Temperature: 58.1 °F 46.6 °F 51.4 °F
Dew Point: 50.7 °F 42.8 °F 46.8 °F
Humidity: 96 % 59 % 85 %
Wind Speed: 12 mph 0 mph 3.2 mph
Wind Gust: 22 mph - -
Wind:- - SW
Pressure: 30 in 29.9 in -
Precipitation: 0.23 in    
Historical Graphs
 
 
Tabular Data for April 1, 2017
Time Temperature Dew Point Pressure Wind Wind Speed Wind Gust Humidity Rainfall Rate (Hourly)
00:02 52.2 °F 50.7 °F 30 in SW 3 mph 6 mph 95 % 0.1 in
00:12 52.2 °F 50.7 °F 30 in SW 2 mph 6 mph 95 % 0.09 in
00:17 52.2 °F 50.7 °F 30 in SSW 1 mph 6 mph 95 % 0.09 in
00:22 52.2 °F 50.7 °F 30 in Calm   6 mph 95 % 0.09 in
00:27 52 °F 50.5 °F 30 in WNW 2 mph 3 mph 95 % 0.08 in
00:32 51.6 °F 50 °F 30 in West 3 mph 3 mph 94 % 0.08 in
00:42 51.1 °F 49.5 °F 30 in WNW 1 mph 7 mph 94 % 0.06 in
00:52 50.5 °F 48.9 °F 30 in Calm   7 mph 94 % 0.1 in
01:02 50.4 °F 48.7 °F 30 in Calm   3 mph 94 % 0.12 in
01:07 50.2 °F 48.6 °F 30 in Calm   2 mph 94 % 0.13 in
01:12 50.2 °F 48.6 °F 30 in Calm   2 mph 94 % 0.13 in
01:17 50.2 °F 48.6 °F 30 in SSW 1 mph 1 mph 94 % 0.14 in
01:22 50.2 °F 48.7 °F 30 in Calm   2 mph 95 % 0.13 in
01:32 50.4 °F 48.9 °F 30 in Calm   2 mph 95 % 0.14 in
01:42 50.4 °F 48.9 °F 30 in SSE 1 mph 2 mph 95 % 0.15 in
01:47 50.5 °F 49.1 °F 30 in Calm   2 mph 95 % 0.1 in
01:52 50.5 °F 49.1 °F 30 in SW 3 mph 3 mph 95 % 0.1 in
01:57 50.5 °F 49.1 °F 30 in South 2 mph 3 mph 95 % 0.08 in
02:02 50.5 °F 49.1 °F 30 in SSW 1 mph 4 mph 95 % 0.06 in
02:07 50.5 °F 49.5 °F 30 in SSW 2 mph 4 mph 96 % 0.06 in
02:12 50.4 °F 49.3 °F 30 in South 2 mph 4 mph 96 % 0.06 in
02:17 50.4 °F 49.3 °F 30 in SSW 1 mph 3 mph 96 % 0.05 in
02:22 50.4 °F 49.3 °F 30 in SW 2 mph 3 mph 96 % 0.05 in
02:32 50.4 °F 49.3 °F 30 in Calm   4 mph 96 % 0.04 in
02:42 50.4 °F 49.3 °F 30 in South 2 mph 4 mph 96 % 0.03 in
02:47 50.2 °F 49.1 °F 30 in SSW 2 mph 4 mph 96 % 0.03 in
02:52 50.4 °F 49.3 °F 30 in South 2 mph 6 mph 96 % 0.03 in
02:57 50.4 °F 49.3 °F 30 in SSW 1 mph 6 mph 96 % 0.03 in
03:02 50.4 °F 49.3 °F 30 in Calm   6 mph 96 % 0.03 in
03:07 50.4 °F 49.3 °F 30 in SSW 3 mph 4 mph 96 % 0.02 in
03:12 50.4 °F 49.3 °F 30 in SW 3 mph 6 mph 96 % 0.02 in
03:17 50.4 °F 49.3 °F 30 in SSW 4 mph 7 mph 96 % 0.02 in
03:22 50.2 °F 49.1 °F 30 in SSW 5 mph 7 mph 96 % 0.01 in
03:27 50.2 °F 49.1 °F 30 in SSW 1 mph 7 mph 96 % 0.01 in
03:32 50.2 °F 49.1 °F 30 in SW 2 mph 7 mph 96 % 0.01 in
03:37 50.2 °F 49.1 °F 30 in SW 1 mph 6 mph 96 % 0.01 in
03:42 50 °F 48.9 °F 30 in South 1 mph 5 mph 96 % 0 in
03:47 50 °F 48.9 °F 30 in SW 3 mph 5 mph 96 % 0 in
03:52 49.8 °F 48.7 °F 30 in SSW 4 mph 4 mph 96 % 0 in
03:57 49.8 °F 48.7 °F 30 in SSW 6 mph 6 mph 96 % 0 in
04:02 49.8 °F 48.7 °F 30 in SSW 4 mph 8 mph 96 % 0 in
04:07 49.6 °F 48.6 °F 30 in SSW 4 mph 8 mph 96 % 0 in
04:12 49.6 °F 48.6 °F 30 in SSW 5 mph 8 mph 96 % 0 in
04:17 49.6 °F 48.6 °F 30 in SSW 2 mph 7 mph 96 % 0 in
04:22 49.6 °F 48.6 °F 30 in SSW 3 mph 6 mph 96 % 0 in
04:27 49.6 °F 48.6 °F 30 in SW 4 mph 7 mph 96 % 0 in
04:32 49.5 °F 48.4 °F 30 in South 4 mph 7 mph 96 % 0 in
04:42 49.3 °F 48.2 °F 30 in SW 3 mph 7 mph 96 % 0 in
04:47 49.3 °F 48.2 °F 30 in SSW 6 mph 8 mph 96 % 0 in
04:52 49.3 °F 48.2 °F 29.9 in SSW 4 mph 8 mph 96 % 0 in
04:57 49.3 °F 48.2 °F 29.9 in WSW 8 mph 8 mph 96 % 0 in
05:02 49.3 °F 48.2 °F 29.9 in SW 5 mph 8 mph 96 % 0 in
05:07 49.3 °F 48.2 °F 29.9 in SW 4 mph 9 mph 96 % 0 in
05:12 49.3 °F 48.2 °F 29.9 in SW 5 mph 9 mph 96 % 0 in
05:17 49.3 °F 48.2 °F 29.9 in SW 6 mph 8 mph 96 % 0 in
05:22 49.3 °F 48.2 °F 29.9 in SW 4 mph 8 mph 96 % 0 in
05:27 49.3 °F 48.2 °F 29.9 in SW 2 mph 9 mph 96 % 0 in
05:32 49.3 °F 48.2 °F 29.9 in SSW 4 mph 9 mph 96 % 0 in
05:37 49.3 °F 48.2 °F 29.9 in SW 3 mph 8 mph 96 % 0 in
05:42 49.3 °F 48.2 °F 29.9 in SW 3 mph 8 mph 96 % 0 in
05:47 49.3 °F 48.2 °F 29.9 in SW 2 mph 8 mph 96 % 0 in
05:52 49.3 °F 48.2 °F 29.9 in SW 2 mph 8 mph 96 % 0 in
05:57 49.1 °F 48 °F 29.9 in SSW 2 mph 8 mph 96 % 0 in
06:02 49.1 °F 48 °F 29.9 in WSW 4 mph 8 mph 96 % 0 in
06:07 48.9 °F 47.5 °F 29.9 in SW 5 mph 6 mph 95 % 0 in
06:12 48.9 °F 47.5 °F 29.9 in WSW 7 mph 7 mph 95 % 0 in
06:17 48.9 °F 47.5 °F 29.9 in WSW 4 mph 6 mph 95 % 0 in
06:22 48.9 °F 47.5 °F 29.9 in South 2 mph 11 mph 95 % 0 in
06:27 48.9 °F 47.5 °F 29.9 in SW 2 mph 11 mph 95 % 0 in
06:32 48.9 °F 47.5 °F 29.9 in SSW 2 mph 6 mph 95 % 0 in
06:37 48.9 °F 47.5 °F 29.9 in South 2 mph 6 mph 95 % 0 in
06:42 48.9 °F 47.5 °F 29.9 in WSW 4 mph 6 mph 95 % 0 in
06:47 48.7 °F 47.3 °F 29.9 in SW 3 mph 6 mph 95 % 0 in
06:57 48.7 °F 47.3 °F 29.9 in SSW 2 mph 6 mph 95 % 0 in
07:02 48.7 °F 47.3 °F 29.9 in SW 2 mph 6 mph 95 % 0 in
07:07 48.7 °F 47.3 °F 29.9 in South 2 mph 5 mph 95 % 0 in
07:12 48.6 °F 47.1 °F 29.9 in SW 2 mph 5 mph 95 % 0 in
07:17 48.6 °F 47.1 °F 29.9 in SW 1 mph 5 mph 95 % 0 in
07:22 48.6 °F 47.1 °F 29.9 in South 1 mph 5 mph 95 % 0 in
07:27 48.4 °F 46.9 °F 29.9 in WSW 3 mph 4 mph 95 % 0 in
07:32 48.4 °F 46.9 °F 29.9 in WSW 3 mph 4 mph 95 % 0 in
07:37 48.4 °F 46.9 °F 29.9 in West 3 mph 7 mph 95 % 0 in
07:42 48.4 °F 46.9 °F 29.9 in WSW 2 mph 7 mph 95 % 0 in
07:47 48.2 °F 46.8 °F 29.9 in West 4 mph 7 mph 95 % 0 in
07:52 48.2 °F 46.8 °F 30 in WSW 3 mph 7 mph 95 % 0 in
07:57 48 °F 46.6 °F 30 in West 6 mph 6 mph 95 % 0 in
08:02 48 °F 46.4 °F 30 in SW 3 mph 6 mph 94 % 0 in
08:12 48.2 °F 46.6 °F 30 in Calm   6 mph 94 % 0 in
08:17 48.2 °F 46.6 °F 30 in WSW 3 mph 5 mph 94 % 0 in
08:22 48.2 °F 46.6 °F 30 in SW 2 mph 5 mph 94 % 0 in
08:27 48.2 °F 46.6 °F 30 in WSW 2 mph 5 mph 94 % 0 in
08:32 48.2 °F 46.6 °F 30 in WSW 4 mph 5 mph 94 % 0 in
08:37 48 °F 46.4 °F 30 in WSW 4 mph 8 mph 94 % 0 in
08:42 48 °F 46.4 °F 30 in WSW 2 mph 8 mph 94 % 0 in
08:47 48.2 °F 46.6 °F 30 in WSW 1 mph 6 mph 94 % 0 in
08:52 48 °F 46.4 °F 30 in SW 2 mph 6 mph 94 % 0 in
08:57 48.2 °F 46.6 °F 30 in WSW 1 mph 6 mph 94 % 0 in
09:02 48.4 °F 46.8 °F 30 in SW 2 mph 6 mph 94 % 0 in
09:07 48.4 °F 46.8 °F 30 in West 3 mph 5 mph 94 % 0 in
09:12 48.2 °F 46.6 °F 30 in WSW 4 mph 5 mph 94 % 0 in
09:17 48.2 °F 46.2 °F 30 in WSW 5 mph 7 mph 93 % 0 in
09:22 48.4 °F 46.4 °F 30 in WSW 5 mph 7 mph 93 % 0 in
09:32 48.4 °F 46.4 °F 30 in West 2 mph 7 mph 93 % 0 in
09:37 48.4 °F 46.4 °F 30 in SSW 2 mph 6 mph 93 % 0 in
09:42 48.4 °F 46.4 °F 30 in SW 2 mph 6 mph 93 % 0 in
09:47 48.6 °F 46.6 °F 30 in WSW 2 mph 7 mph 93 % 0 in
09:52 48.6 °F 46.6 °F 30 in West 1 mph 7 mph 93 % 0 in
09:57 48.7 °F 46.6 °F 30 in SW 6 mph 10 mph 92 % 0 in
10:02 48.7 °F 46.6 °F 30 in West 4 mph 10 mph 92 % 0 in
10:07 48.7 °F 46.6 °F 30 in SW 2 mph 9 mph 92 % 0 in
10:12 48.9 °F 46.8 °F 30 in WSW 5 mph 9 mph 92 % 0 in
10:17 49.1 °F 46.9 °F 30 in WSW 4 mph 9 mph 92 % 0 in
10:22 49.3 °F 46.8 °F 30 in SW 5 mph 7 mph 91 % 0 in
10:27 49.3 °F 46.8 °F 30 in SW 6 mph 10 mph 91 % 0 in
10:32 49.5 °F 46.9 °F 30 in West 6 mph 10 mph 91 % 0 in
10:42 49.6 °F 47.1 °F 30 in West 2 mph 9 mph 91 % 0 in
10:47 49.8 °F 46.9 °F 30 in WSW 3 mph 8 mph 90 % 0 in
10:52 49.8 °F 46.9 °F 30 in WSW 7 mph 8 mph 90 % 0 in
10:57 50 °F 47.1 °F 30 in West 5 mph 8 mph 90 % 0 in
11:02 50.2 °F 47.1 °F 30 in West 2 mph 8 mph 89 % 0 in
11:07 50.5 °F 47.5 °F 30 in SSE 2 mph 8 mph 89 % 0 in
11:12 50.7 °F 47.3 °F 30 in WSW 3 mph 7 mph 88 % 0 in
11:17 51.1 °F 48 °F 30 in West 2 mph 8 mph 89 % 0 in
11:22 51.6 °F 48.2 °F 30 in Calm   8 mph 88 % 0 in
11:27 52 °F 48.2 °F 30 in West 4 mph 5 mph 87 % 0 in
11:32 51.6 °F 47.3 °F 30 in West 5 mph 7 mph 85 % 0 in
11:37 51.6 °F 47.3 °F 30 in West 2 mph 7 mph 85 % 0 in
11:42 51.6 °F 47.5 °F 30 in WNW 3 mph 7 mph 86 % 0 in
11:47 51.6 °F 46.9 °F 30 in West 5 mph 7 mph 84 % 0 in
11:52 52 °F 46.9 °F 30 in West 5 mph 7 mph 83 % 0 in
11:57 52.3 °F 47.3 °F 30 in West 3 mph 7 mph 83 % 0 in
12:02 52.5 °F 47.1 °F 30 in WSW 6 mph 7 mph 82 % 0 in
12:07 52.3 °F 46 °F 30 in West 5 mph 9 mph 79 % 0 in
12:12 52.3 °F 46.4 °F 30 in West 5 mph 10 mph 80 % 0 in
12:17 52.3 °F 46.8 °F 30 in West 5 mph 10 mph 81 % 0 in
12:22 52.5 °F 47.1 °F 30 in WSW 5 mph 10 mph 82 % 0 in
12:27 53.2 °F 47.3 °F 30 in WSW 2 mph 7 mph 80 % 0 in
12:32 54 °F 46.9 °F 30 in West 1 mph 7 mph 77 % 0 in
12:37 54.3 °F 46.9 °F 30 in WSW 7 mph 7 mph 76 % 0 in
12:42 54.9 °F 48.2 °F 30 in SW 7 mph 11 mph 78 % 0 in
12:47 54.9 °F 48.2 °F 30 in SSE 6 mph 11 mph 78 % 0 in
12:52 54.9 °F 48.6 °F 30 in SW 6 mph 12 mph 79 % 0 in
12:57 55 °F 48.4 °F 30 in SW 7 mph 12 mph 78 % 0 in
13:02 55 °F 47.7 °F 30 in Calm   12 mph 76 % 0 in
13:12 55 °F 48 °F 30 in West 6 mph 9 mph 77 % 0 in
13:17 54.7 °F 47.3 °F 30 in West 5 mph 8 mph 76 % 0 in
13:22 55 °F 46.9 °F 30 in West 4 mph 8 mph 74 % 0 in
13:27 55 °F 46.6 °F 30 in West 1 mph 8 mph 73 % 0 in
13:32 55.6 °F 48.9 °F 30 in West 2 mph 8 mph 78 % 0 in
13:37 55.6 °F 47.8 °F 30 in SW 3 mph 8 mph 75 % 0 in
13:42 56.5 °F 46.4 °F 30 in SW 9 mph 18 mph 69 % 0 in
13:52 54.9 °F 46 °F 30 in WSW 7 mph 18 mph 72 % 0 in
13:57 54.5 °F 45.3 °F 30 in WSW 5 mph 14 mph 71 % 0 in
14:02 55.2 °F 45.7 °F 30 in West 11 mph 12 mph 70 % 0 in
14:12 56.1 °F 44.1 °F 30 in WNW 2 mph 13 mph 64 % 0 in
14:17 56.7 °F 44.2 °F 30 in NW 7 mph 13 mph 63 % 0 in
14:22 56.8 °F 43.9 °F 30 in WSW 8 mph 11 mph 62 % 0 in
14:27 56.8 °F 44.4 °F 30 in WSW 7 mph 16 mph 63 % 0 in
14:32 56.8 °F 44.8 °F 30 in WSW 5 mph 16 mph 64 % 0 in
14:42 57 °F 45.3 °F 30 in West 5 mph 12 mph 65 % 0 in
14:47 56.8 °F 43.9 °F 29.9 in West 4 mph 10 mph 62 % 0 in
14:52 56.7 °F 44.2 °F 29.9 in WSW 4 mph 9 mph 63 % 0 in
14:57 56.8 °F 43.2 °F 30 in WSW 7 mph 11 mph 60 % 0 in
15:02 56.8 °F 44.4 °F 29.9 in SSW 3 mph 11 mph 63 % 0 in
15:12 56.7 °F 44.2 °F 30 in WSW 7 mph 14 mph 63 % 0 in
15:22 54.3 °F 46.2 °F 30 in SW 9 mph 22 mph 74 % 0 in
15:32 52.9 °F 44.8 °F 30 in West 10 mph 20 mph 74 % 0 in
15:37 52.2 °F 44.8 °F 30 in WSW 10 mph 17 mph 76 % 0 in
15:42 51.6 °F 44.2 °F 30 in WSW 9 mph 17 mph 76 % 0 in
15:52 51.8 °F 44.8 °F 30 in SW 1 mph 16 mph 77 % 0.02 in
15:57 52.3 °F 44.2 °F 30 in WSW 3 mph 11 mph 74 % 0.02 in
16:02 53.1 °F 44.6 °F 30 in SW 3 mph 7 mph 73 % 0.02 in
16:12 54 °F 44.1 °F 29.9 in SW 4 mph 5 mph 69 % 0.02 in
16:17 54.9 °F 45 °F 29.9 in SW 5 mph 7 mph 69 % 0.02 in
16:22 55.4 °F 44.2 °F 29.9 in SSW 6 mph 7 mph 66 % 0.02 in
16:32 56.3 °F 45.5 °F 29.9 in WSW 6 mph 12 mph 67 % 0.02 in
16:42 57.2 °F 45.9 °F 29.9 in SW 12 mph 13 mph 66 % 0.02 in
16:47 57.4 °F 46 °F 29.9 in WSW 5 mph 14 mph 66 % 0.01 in
16:52 57.4 °F 46 °F 29.9 in West 6 mph 14 mph 66 % 0 in
17:02 57.6 °F 47.1 °F 29.9 in SW 11 mph 12 mph 68 % 0 in
17:07 57.9 °F 45.3 °F 29.9 in SW 10 mph 13 mph 63 % 0 in
17:12 57.7 °F 43.5 °F 29.9 in SW 6 mph 13 mph 59 % 0 in
17:17 57.6 °F 44.6 °F 29.9 in SSW 11 mph 13 mph 62 % 0 in
17:22 57.6 °F 44.6 °F 29.9 in WSW 8 mph 15 mph 62 % 0 in
17:32 57.7 °F 44.8 °F 29.9 in SSW 8 mph 15 mph 62 % 0 in
17:42 57 °F 45.9 °F 29.9 in WSW 7 mph 13 mph 66 % 0 in
17:47 57 °F 45.3 °F 29.9 in WSW 6 mph 11 mph 65 % 0 in
17:52 57.4 °F 45.3 °F 29.9 in SW 6 mph 11 mph 64 % 0 in
17:57 57 °F 45.9 °F 29.9 in West 8 mph 14 mph 66 % 0 in
18:02 57.4 °F 46.6 °F 29.9 in SW 6 mph 14 mph 67 % 0 in
18:07 57.6 °F 45.1 °F 29.9 in West 2 mph 14 mph 63 % 0 in
18:12 57.7 °F 44.8 °F 29.9 in SW 3 mph 14 mph 62 % 0 in
18:17 58.1 °F 44.8 °F 29.9 in West 3 mph 14 mph 61 % 0 in
18:22 57.7 °F 44.4 °F 29.9 in West 4 mph 14 mph 61 % 0 in
18:32 57.7 °F 46 °F 29.9 in NNW 4 mph 9 mph 65 % 0 in
18:37 56.8 °F 46.4 °F 29.9 in NW 1 mph 7 mph 68 % 0 in
18:42 56.1 °F 47.3 °F 29.9 in NW 1 mph 6 mph 72 % 0 in
18:52 55 °F 46.9 °F 30 in NNW 5 mph 5 mph 74 % 0 in
18:57 54.9 °F 47.5 °F 30 in North 5 mph 6 mph 76 % 0 in
19:02 54.7 °F 47.7 °F 30 in NNE 1 mph 6 mph 77 % 0 in
19:12 54.7 °F 47.3 °F 30 in Calm   5 mph 76 % 0 in
19:17 54.7 °F 47.3 °F 30 in Calm   4 mph 76 % 0 in
19:22 54.9 °F 47.8 °F 30 in NNW 1 mph 4 mph 77 % 0 in
19:32 54.7 °F 47.3 °F 30 in Calm   3 mph 76 % 0 in
19:37 54.7 °F 47.3 °F 30 in West 1 mph 3 mph 76 % 0 in
19:42 54.5 °F 47.1 °F 30 in North 1 mph 3 mph 76 % 0 in
19:47 54.3 °F 46.9 °F 30 in Calm   3 mph 76 % 0 in
19:52 54.1 °F 46.8 °F 30 in NNW 2 mph 3 mph 76 % 0 in
20:02 53.6 °F 46.6 °F 30 in WNW 1 mph 3 mph 77 % 0 in
20:12 53.1 °F 46 °F 30 in WNW 3 mph 3 mph 77 % 0 in
20:17 52.9 °F 45.9 °F 30 in WSW 4 mph 5 mph 77 % 0 in
20:22 53.1 °F 45.7 °F 30 in SW 3 mph 9 mph 76 % 0 in
20:27 52.9 °F 45.1 °F 30 in WSW 4 mph 9 mph 75 % 0 in
20:32 52.5 °F 44.1 °F 30 in WSW 2 mph 9 mph 73 % 0 in
20:37 52.5 °F 43.3 °F 30 in SW 3 mph 6 mph 71 % 0 in
20:42 52.5 °F 43.3 °F 30 in SW 1 mph 6 mph 71 % 0 in
20:47 52.3 °F 42.8 °F 30 in SW 1 mph 6 mph 70 % 0 in
20:52 52.2 °F 43.7 °F 30 in Calm   6 mph 73 % 0 in
21:02 51.8 °F 43 °F 30 in Calm   2 mph 72 % 0 in
21:12 51.1 °F 43.5 °F 30 in Calm   1 mph 75 % 0 in
21:17 50.7 °F 43.2 °F 30 in Calm   1 mph 75 % 0 in
21:22 50.5 °F 43.5 °F 30 in Calm   1 mph 77 % 0 in
21:32 50.5 °F 43.3 °F 30 in Calm   1 mph 76 % 0 in
21:42 50.2 °F 43.3 °F 30 in Calm   1 mph 77 % 0 in
21:52 49.1 °F 43.2 °F 30 in Calm   1 mph 80 % 0 in
22:02 48.9 °F 43.3 °F 30 in Calm   1 mph 81 % 0 in
22:12 49.1 °F 43.2 °F 30 in Calm   1 mph 80 % 0 in
22:17 48.9 °F 43.3 °F 30 in Calm   1 mph 81 % 0 in
22:27 48.7 °F 43.5 °F 30 in Calm   1 mph 82 % 0 in
22:32 48.6 °F 43.3 °F 30 in Calm   1 mph 82 % 0 in
22:37 48.4 °F 43.5 °F 30 in Calm   1 mph 83 % 0 in
22:42 48.4 °F 44.1 °F 30 in NE 2 mph 2 mph 85 % 0 in
22:47 48 °F 44.1 °F 30 in NE 1 mph 2 mph 86 % 0 in
22:52 48 °F 44.1 °F 30 in ENE 2 mph 2 mph 86 % 0 in
22:57 48 °F 44.1 °F 30 in Calm   2 mph 86 % 0 in
23:02 48 °F 44.4 °F 30 in Calm   2 mph 87 % 0 in
23:07 48 °F 44.1 °F 30 in Calm   2 mph 86 % 0 in
23:12 47.8 °F 43.9 °F 30 in Calm   1 mph 86 % 0 in
23:17 47.7 °F 44.1 °F 30 in Calm     87 % 0 in
23:22 47.5 °F 43.9 °F 30 in Calm     87 % 0 in
23:32 47.1 °F 43.7 °F 30 in Calm     88 % 0 in
23:42 47.1 °F 43.5 °F 30 in Calm     87 % 0 in
23:47 46.9 °F 43.5 °F 30 in Calm     88 % 0 in
23:52 46.8 °F 43.3 °F 30 in Calm     88 % 0 in
23:57 46.6 °F 43.5 °F 30 in Calm     89 % 0 in
Meteo18
Compliments of Weather Underground - 4 mb

Script developed by  Jim McMurry - jmcmurry@mwt.net Adapted for the template by  Wim van der Kuil - Leuven-Template.eu

You find our weather info also at:

European Weather Network

Weather Underground

Equipment we use:

Weather-station
Davis Vue

Weather-program
Meteohub

Weather-server
Raspberry PI 2 B+

Provider
1 and 1

Davis Vue

Meteohub

Raspberry PI 2 B+

1 and 1